Kezdőlap
METAR-TAF:

METAR-TAF

Repülőterek :

Pittsfield Penstone Municipal Airport

Pittsfield, Illinois, Amerikai Egyesült Államok

földrajzi szélesség: 39-38-20N, földrajzi hosszúság: 090-46-42W, magasság: 216 m

Jelenlegi meteorológiai megfigyelések

A jelentés 10 perccel ezelõtt készült, 17:15 UTC
Kelet-északkeleti szél 5 kt
Hőmérséklet 29°C
Páratartalom 79%
Légköri nyomás 1019 hPa
Látótávolság: 16.1 km
Szórványos felhőzet 2200 lábon
Szórványos felhőzet 2900 lábon

METAR: KPPQ 131715Z AUTO 06005KT 10SM SCT022 SCT029 29/25 A3008 RMK AO2 T02870246

Idő: 12:25 (17:25 UTC)


TAF: hiányzik

Meteorológiai megfigyelések és előrejelzések több, mint 4000 repülőtéren (METAR és TAF jelentéseket).

A térképen piros és sárga pontok jelzik az elérhető meteorológiai állomásokat.

Mozgassa az egeret a pont fölött, hogy megjelenjen az állomás neve.

Azután kattintson az időjárási megfigyelések és előrejelzések megtekintéséhez.

A térkép megváltoztatása: kattintson a fekete keresztel jelölt zöld gombra ráközelítéshez, a vonallal jelölt zöld gombra távolításhoz, vagy a zöld nyilakra a szomszédos térképek eléréséhez.


METAR-TAF: